createdAt,value
2023-12-01T00:23:50.589Z,1.17
2023-12-01T00:38:54.154Z,0.97
2023-12-01T00:54:09.771Z,0.93
2023-12-01T01:40:58.064Z,0.45
2023-12-01T01:56:20.883Z,0.36
2023-12-01T02:11:35.252Z,0.40
2023-12-01T03:14:01.843Z,0.16
2023-12-01T03:29:14.138Z,0.18
2023-12-01T04:00:20.865Z,0.03
2023-12-01T04:46:02.481Z,0.25
2023-12-01T05:01:07.591Z,0.25
2023-12-01T05:16:12.192Z,0.26
2023-12-01T05:31:20.591Z,0.13
2023-12-01T05:46:29.211Z,0.12
2023-12-01T06:01:36.284Z,0.10
2023-12-01T06:32:37.228Z,-0.17
2023-12-01T06:47:42.845Z,-0.18
2023-12-01T07:02:47.626Z,-0.08
2023-12-01T07:17:55.925Z,0.11
2023-12-01T07:33:09.633Z,0.08
2023-12-01T07:48:21.668Z,-0.11
2023-12-01T08:03:25.235Z,0.16
2023-12-01T08:18:29.434Z,0.30
2023-12-01T08:33:34.044Z,0.42
2023-12-01T08:48:37.918Z,0.13
2023-12-01T09:03:44.776Z,0.36
2023-12-01T09:18:48.432Z,0.38
2023-12-01T09:33:52.477Z,0.22
2023-12-01T09:48:59.667Z,0.23
2023-12-01T10:04:03.794Z,0.17
2023-12-01T10:19:19.726Z,0.14
2023-12-01T10:34:23.378Z,0.10
2023-12-01T10:49:26.772Z,0.33
2023-12-01T11:04:34.756Z,0.21
2023-12-01T11:19:40.251Z,0.27
2023-12-01T11:35:07.777Z,0.18
2023-12-01T11:50:14.810Z,0.44
2023-12-01T12:05:18.511Z,0.29
2023-12-01T12:20:25.491Z,0.43
2023-12-01T12:35:29.558Z,0.15
2023-12-01T12:50:39.827Z,0.10
2023-12-01T13:05:48.062Z,0.22
2023-12-01T13:20:52.793Z,0.18
2023-12-01T13:36:00.214Z,0.18
2023-12-01T13:51:07.048Z,0.04
2023-12-01T14:22:19.638Z,-0.14
2023-12-01T14:37:33.985Z,-0.29
2023-12-01T14:52:39.295Z,-0.43
2023-12-01T15:23:55.643Z,-0.89
2023-12-01T15:39:06.339Z,-0.65
2023-12-01T15:54:10.536Z,-1.10
2023-12-01T16:26:07.867Z,-0.94
2023-12-01T16:56:58.267Z,-1.09
2023-12-01T17:12:04.475Z,-0.99
2023-12-01T19:50:58.989Z,-1.53
2023-12-01T20:39:54.081Z,-2.08
2023-12-01T23:40:56.133Z,-2.46
